ABOUT

【つっ!.COM】 2chまとめにΣ(`・ω・ ´ ) について

2chをまとめたレスに対してレスしよう!というコンセプトのまとめサイト。

機能1

本文中のレスに対してつっ!コメができるよ!
先頭に ”>>数字 (レスアンカー)” をつけてコメントしてみよう。

ボタン が現れてつっ!コメが本文に!

レスボタン ボタンを押して
右下のツッコむ!フォームからコメントしよう!
その他方針は適当だよ。もちろん普通のコメントも大歓迎!

機能2

新しくワロタボタン
がついたよ!

1ボタン5回押せるから
笑ったら押してみてね!
まとめ管理人様へ
ワロタボタン配布
開始しました。

お知らせ

一般ブログ向けワロタボタン公開しました(・∀・)
詳しくは→【一般ブログ向け】ワロタボタンについてをご覧下さい。
当サイトはもちろんリンクフリーです。相互リンクRSS募集してます!→連絡はコチラから
byてばさき@管理人

【画像】長澤まさみの”太もも”が相変わらず(・∀・)イイ!!【悲報】きゃりーぱみゅぱみゅさん(20)の検索履歴wwwwwwwwwwwwwwwwwwwwwwwww【AKB48】指原莉乃(さしはらりの)「今日は寒いから握手会中止」 → ヤフコメ批判殺到で炎上wwwwwwwwwwwwwwww【衝撃画像】小保方ノートの表紙ヤバすぎwwwwwwwwwこれは叩かれる訳だわwwwwwwwwwwwwwwwwwwwwwww未だにコナンが蘭に正体を隠す理由wwwwwwwwwwwwwww【画像】ビビアン・スー(39)の現在【衝撃的】 元SPEEDの上原多香子が超絶激太りしててワロタwwwwwww (画像あり)【悲報】スザンヌ(27)の現在・・・・・・(画像あり)

by てばさき

1: 風吹けば名無し: 2019/10/19(土) 13:47:56.01 ID:Zod5BLNPp.net





2: 風吹けば名無し: 2019/10/19(土) 13:48:05.58 ID:Zod5BLNPp.net ええんかこれ…

3: 風吹けば名無し: 2019/10/19(土) 13:48:24.03 ID:Q6mwYKTG0.net 今時の水着としては布おおいやろ
5: 風吹けば名無し: 2019/10/19(土) 13:48:32.64 ID:Zod5BLNPp.net

159: 風吹けば名無し: 2019/10/19(土) 14:05:34.14 ID:fjbLbi/r0.net >>5
エチチチチ
6: 風吹けば名無し: 2019/10/19(土) 13:48:38.48 ID:5Pl2ohJT0.net エッッッッッッッッ
14: 風吹けば名無し: 2019/10/19(土) 13:48:59.64 ID:Zod5BLNPp.net

30: 風吹けば名無し: 2019/10/19(土) 13:50:05.63 ID:wnYIQ9Un0.net >>14
ニップレスはみ出てない?
20: 風吹けば名無し: 2019/10/19(土) 13:49:31.32 ID:Zod5BLNPp.net 一方昔のグラビア(笑)


23: 風吹けば名無し: 2019/10/19(土) 13:49:42.13 ID:5kDEkoWkd.net >>20
汚い
37: 風吹けば名無し: 2019/10/19(土) 13:51:09.07 ID:nSwp/xKN0.net >>20
MEGUMI短足すぎ
47: 風吹けば名無し: 2019/10/19(土) 13:52:32.53 ID:BqGbhGV4d.net >>37
いや相手が悪いだけ
44: 風吹けば名無し: 2019/10/19(土) 13:51:55.55 ID:g+YDsF8CM.net >>20
ぼろ負けやん
378: 風吹けば名無し: 2019/10/19(土) 14:25:30.18 ID:cQdQGZ7n0.net >>20
小池栄子


420: 風吹けば名無し: 2019/10/19(土) 14:28:31.40 ID:JPzjKHj+0.net >>20
加工技術の差だろ
475: 風吹けば名無し: 2019/10/19(土) 14:32:52.74 ID:Quv49QPfM.net >>20
アグネスラムを見せろ
519: 風吹けば名無し: 2019/10/19(土) 14:36:02.66 ID:cQdQGZ7n0.net >>475
はい






573: 風吹けば名無し: 2019/10/19(土) 14:40:51.95 ID:Quv49QPfM.net >>519
ありがとう
うおおおおおおおおおおおおおおおおおおおおおおおおおおおおおおおおおおおおおおおおおおおおおおお
577: 風吹けば名無し: 2019/10/19(土) 14:41:44.13 ID:Quv49QPfM.net >>519
やっぱりアグネスラムやな
次点で河合奈保子
604: 風吹けば名無し: 2019/10/19(土) 14:45:10.74 ID:cQdQGZ7n0.net >>577
スマイル・フォー・ミー






42: 風吹けば名無し: 2019/10/19(土) 13:51:38.91 ID:qIRee02y0.net



51: 風吹けば名無し: 2019/10/19(土) 13:52:49.18 ID:zZxoZdMRr.net >>42
デリヘル女やんけ
87: 風吹けば名無し: 2019/10/19(土) 13:57:15.13 ID:BqGbhGV4d.net >>42
こっちのがいあ
115: 風吹けば名無し: 2019/10/19(土) 14:00:22.54 ID:o3wveXVGd.net >>42
圧迫面接されたいんごねえ
60: 風吹けば名無し: 2019/10/19(土) 13:53:49.09 ID:ERHDFJbra.net

70: 風吹けば名無し: 2019/10/19(土) 13:55:13.13 ID:oFn4Bhy/0.net >>60
メコスジ、シュッ!w
75: 風吹けば名無し: 2019/10/19(土) 13:55:51.94 ID:e3sgBlyX0.net >>60
これが講談社か
78: 風吹けば名無し: 2019/10/19(土) 13:56:03.66 ID:NsrWJAPBr.net >>60
この子ホンマシコい
80: 風吹けば名無し: 2019/10/19(土) 13:56:11.05 ID:sGh7d41K0.net

85: 風吹けば名無し: 2019/10/19(土) 13:57:12.43 ID:K98b3Svf0.net でもヤりまくりやで、こいつら

88: 風吹けば名無し: 2019/10/19(土) 13:57:20.37 ID:JeFUgqa30.net

92: 風吹けば名無し: 2019/10/19(土) 13:58:05.47 ID:hr/5yAMz0.net >>88
つよい
95: 風吹けば名無し: 2019/10/19(土) 13:58:15.06 ID:wOlGCzspa.net >>88
最高
98: 風吹けば名無し: 2019/10/19(土) 13:58:39.61 ID:BqGbhGV4d.net >>88
美形やン
103: 風吹けば名無し: 2019/10/19(土) 13:59:11.87 ID:JHtaBH0F0.net

109: 風吹けば名無し: 2019/10/19(土) 14:00:05.27 ID:M7AV1tR+d.net



125: 風吹けば名無し: 2019/10/19(土) 14:01:45.53 ID:qIRee02y0.net >>109
顔がおっかあなのは損やな
123: 風吹けば名無し: 2019/10/19(土) 14:01:41.79 ID:sGh7d41K0.net

192: 風吹けば名無し: 2019/10/19(土) 14:09:00.55 ID:TPJ8SJlj0.net >>123
こういう宿泊前提の撮影は撮影スタッフと関係持つケースが多いから自衛のために女の子がコンドーム持ち歩いてるらしいで
537: 風吹けば名無し: 2019/10/19(土) 14:37:57.21 ID:ivfW4y7u0.net >>192
それ自衛って言うんですかね…
415: 風吹けば名無し: 2019/10/19(土) 14:28:08.03 ID:f+DGXEfF0.net >>123
この子の名前は?
おっぱいプルプル揺らす動画すこ
435: 風吹けば名無し: 2019/10/19(土) 14:29:39.27 ID:1xQ85kWg0.net >>415





448: 風吹けば名無し: 2019/10/19(土) 14:30:27.81 ID:+/eHxRSkd.net >>435
ぶっさ
485: 風吹けば名無し: 2019/10/19(土) 14:33:19.24 ID:f+DGXEfF0.net >>435
えっちだ…w
130: 風吹けば名無し: 2019/10/19(土) 14:02:04.89 ID:OoPdIXoSa.net

😅
131: 風吹けば名無し: 2019/10/19(土) 14:02:08.14 ID:on7Ia3ntp.net

オレンジの涙袋が怪しい…
140: 風吹けば名無し: 2019/10/19(土) 14:03:09.90 ID:PfDDXPsIa.net >>131
こわ
141: 風吹けば名無し: 2019/10/19(土) 14:03:15.81 ID:99lTXk8Ux.net 沢口すこ
あれでjkはチートやろ
146: 風吹けば名無し: 2019/10/19(土) 14:03:49.46 ID:aYJV24r60.net >>141



170: 風吹けば名無し: 2019/10/19(土) 14:06:52.62 ID:BcTdAuJw0.net >>146
こんなん同級生なら毎日オカズにするやろ
180: 風吹けば名無し: 2019/10/19(土) 14:07:57.33 ID:aYJV24r60.net >>170


188: 風吹けば名無し: 2019/10/19(土) 14:08:48.26 ID:9iW621//a.net >>180
オッパいが揺れてるからフェイクや
143: 風吹けば名無し: 2019/10/19(土) 14:03:26.28 ID:fjbLbi/r0.net 二人まで選べるなら?



150: 風吹けば名無し: 2019/10/19(土) 14:04:14.69 ID:LW91r9iQ0.net >>143
4と16
151: 風吹けば名無し: 2019/10/19(土) 14:04:22.52 ID:OoPdIXoSa.net >>143
15と16
164: 風吹けば名無し: 2019/10/19(土) 14:06:12.08 ID:BFw+BnYz0.net >>143
おっぱい見せて😡
158: 風吹けば名無し: 2019/10/19(土) 14:05:20.75 ID:qIRee02y0.net

167: 風吹けば名無し: 2019/10/19(土) 14:06:30.10 ID:wOlGCzspa.net >>158
9ばんまじですこ
171: 風吹けば名無し: 2019/10/19(土) 14:06:53.94 ID:wrIhJ9Z80.net >>158
1,2がいい
174: 風吹けば名無し: 2019/10/19(土) 14:07:22.17 ID:2KkueFhA0.net >>158
6と12かな
182: 風吹けば名無し: 2019/10/19(土) 14:08:14.28 ID:YTUH58qo0.net >>158
12や!
161: 風吹けば名無し: 2019/10/19(土) 14:05:48.80 ID:aYJV24r60.net

172: 風吹けば名無し: 2019/10/19(土) 14:07:07.42 ID:Du4RxwST0.net お前らならどっちを選ぶ?




207: 風吹けば名無し: 2019/10/19(土) 14:10:00.85 ID:0IDYJX4s0.net >>172
スタンドだしてきそう
176: 風吹けば名無し: 2019/10/19(土) 14:07:26.02 ID:r2Ufsmacd.net

177: 風吹けば名無し: 2019/10/19(土) 14:07:40.30 ID:ScDq7EjP0.net こういうのでいいんだよ


204: 風吹けば名無し: 2019/10/19(土) 14:09:44.26 ID:nPpWTnvKd.net >>177
エッ!!!!!!!!!!!!!!!
241: 風吹けば名無し: 2019/10/19(土) 14:13:11.84 ID:9qtDA8Nc0.net >>177
181: 風吹けば名無し: 2019/10/19(土) 14:08:13.65 ID:NM33lwjw0.net

183: 風吹けば名無し: 2019/10/19(土) 14:08:14.54 ID:2EdOddZy0.net



195: 風吹けば名無し: 2019/10/19(土) 14:09:19.76 ID:f5jlLIWN0.net

208: 風吹けば名無し: 2019/10/19(土) 14:10:06.26 ID:aYJV24r60.net

211: 風吹けば名無し: 2019/10/19(土) 14:10:14.37 ID:woLwMqxO0.net

227: 風吹けば名無し: 2019/10/19(土) 14:12:02.28 ID:snVNMPeg0.net >>211
心理の心理感
353: 風吹けば名無し: 2019/10/19(土) 14:23:57.13 ID:7IIlin1K0.net >>211
雪の降る街
220: 風吹けば名無し: 2019/10/19(土) 14:11:11.61 ID:Qyfx1AbKd.net 男の60%はこのレベルの子とHできるらしい



229: 風吹けば名無し: 2019/10/19(土) 14:12:11.74 ID:VmM0iN7Ka.net >>220
100パーやん
221: 風吹けば名無し: 2019/10/19(土) 14:11:11.77 ID:aYJV24r60.net

225: 風吹けば名無し: 2019/10/19(土) 14:11:46.44 ID:LrYaRCKd0.net 昔のグラビアもええぞ






228: 風吹けば名無し: 2019/10/19(土) 14:12:07.62 ID:gCdhLljId.net ソフマップのイベント行きたいンゴねー

232: 風吹けば名無し: 2019/10/19(土) 14:12:21.15 ID:qIRee02y0.net

233: 風吹けば名無し: 2019/10/19(土) 14:12:29.42 ID:FA0rAkOf0.net IT社長のオナホいいなぁ
234: 風吹けば名無し: 2019/10/19(土) 14:12:30.80 ID:1xQ85kWg0.net



235: 風吹けば名無し: 2019/10/19(土) 14:12:37.01 ID:sGh7d41K0.net

281: 風吹けば名無し: 2019/10/19(土) 14:16:10.74 ID:BqGbhGV4d.net >>235
この身体じゃ2回と言わず何回も射精るよ
294: 風吹けば名無し: 2019/10/19(土) 14:17:23.01 ID:nPpWTnvKd.net >>235
7匹の小豚
296: 風吹けば名無し: 2019/10/19(土) 14:17:34.56 ID:hr/5yAMz0.net >>235
フェチにはたまらんのやろなあ
240: 風吹けば名無し: 2019/10/19(土) 14:13:08.28 ID:iHuo3k1a0.net

299: 風吹けば名無し: 2019/10/19(土) 14:17:57.83 ID:nPpWTnvKd.net >>240
明らか男の手で草
242: 風吹けば名無し: 2019/10/19(土) 14:13:15.39 ID:2Q2/dcQJa.net 夏目綾の他の画像


243: 風吹けば名無し: 2019/10/19(土) 14:13:22.12 ID:aYJV24r60.net

244: 風吹けば名無し: 2019/10/19(土) 14:13:30.68 ID:1xQ85kWg0.net











300: 風吹けば名無し: 2019/10/19(土) 14:17:58.08 ID:wdTz74iM0.net >>244
これ1枚目すっぴん?なら相当ええな
248: 風吹けば名無し: 2019/10/19(土) 14:14:07.85 ID:aUKxFg3kd.net

255: 風吹けば名無し: 2019/10/19(土) 14:14:28.94 ID:bnG2FTdBd.net 昭和のグラドルwwwwwwwwwwwww






272: 風吹けば名無し: 2019/10/19(土) 14:15:37.54 ID:Uje3LRkR0.net >>255
んほぉ~
282: 風吹けば名無し: 2019/10/19(土) 14:16:15.52 ID:oBMuZ9I/0.net >>255
クソ可愛い
ほんのちょっとの「隙」を感じるのがいい
256: 風吹けば名無し: 2019/10/19(土) 14:14:31.44 ID:1xQ85kWg0.net



263: 風吹けば名無し: 2019/10/19(土) 14:15:09.54 ID:aUKxFg3kd.net

271: 風吹けば名無し: 2019/10/19(土) 14:15:33.76 ID:aUKxFg3kd.net

273: 風吹けば名無し: 2019/10/19(土) 14:15:37.96 ID:1xQ85kWg0.net





275: 風吹けば名無し: 2019/10/19(土) 14:15:46.75 ID:sqZ/lgkf0.net

276: 風吹けば名無し: 2019/10/19(土) 14:15:48.68 ID:KQ7ijVaH0.net

277: 風吹けば名無し: 2019/10/19(土) 14:16:01.21 ID:aUKxFg3kd.net

590: 風吹けば名無し: 2019/10/19(土) 14:43:15.60 ID:h50xYClz0.net >>277
女って旬を過ぎるときついなあ
278: 風吹けば名無し: 2019/10/19(土) 14:16:05.13 ID:1xQ85kWg0.net



298: 風吹けば名無し: 2019/10/19(土) 14:17:54.04 ID:Uje3LRkR0.net >>278
カープは公認サポーター任命あくしろよ
283: 風吹けば名無し: 2019/10/19(土) 14:16:28.00 ID:zqGvuDQwa.net 今は美人がここまできわどいのやるからな


284: 風吹けば名無し: 2019/10/19(土) 14:16:38.86 ID:KQ7ijVaH0.net

290: 風吹けば名無し: 2019/10/19(土) 14:17:13.16 ID:2EdOddZy0.net









291: 風吹けば名無し: 2019/10/19(土) 14:17:17.91 ID:1xQ85kWg0.net











329: 風吹けば名無し: 2019/10/19(土) 14:20:48.52 ID:Uje3LRkR0.net >>291
エ○イザ最高や!
292: 風吹けば名無し: 2019/10/19(土) 14:17:17.93 ID:KQ7ijVaH0.net





297: 風吹けば名無し: 2019/10/19(土) 14:17:45.05 ID:aUKxFg3kd.net















307: 風吹けば名無し: 2019/10/19(土) 14:18:42.21 ID:KQ7ijVaH0.net

308: 風吹けば名無し: 2019/10/19(土) 14:18:42.44 ID:qIRee02y0.net

309: 風吹けば名無し: 2019/10/19(土) 14:18:46.47 ID:aUKxFg3kd.net







311: 風吹けば名無し: 2019/10/19(土) 14:19:03.14 ID:aUKxFg3kd.net

314: 風吹けば名無し: 2019/10/19(土) 14:19:19.77 ID:2RELDMpcp.net

こいつマジでシコい
もし同じ高校とかだったら人生終わっても良いから孕ませる
323: 風吹けば名無し: 2019/10/19(土) 14:20:04.51 ID:qIRee02y0.net >>314
すこな奴はすこな顔やなあ
332: 風吹けば名無し: 2019/10/19(土) 14:21:31.51 ID:/9m63m4N0.net >>323
顔はめちゃくちゃ好きってわけでもないけど身体エ○すぎるわ
315: 風吹けば名無し: 2019/10/19(土) 14:19:28.51 ID:BDvfLoV10.net 最近のワイのイチオシJK














316: 風吹けば名無し: 2019/10/19(土) 14:19:30.83 ID:aUKxFg3kd.net

334: 風吹けば名無し: 2019/10/19(土) 14:21:43.35 ID:S+Uujb2Yd.net >>316
乳首めっちゃ勃ってて最高
354: 風吹けば名無し: 2019/10/19(土) 14:24:01.31 ID:JAdgTEXx0.net >>316
エッッッッッ
319: 風吹けば名無し: 2019/10/19(土) 14:19:54.26 ID:Q9WOnTz2r.net 正直映像荒いほうが抜ける
今は綺麗に映り過ぎや

320: 風吹けば名無し: 2019/10/19(土) 14:19:55.65 ID:sGh7d41K0.net

327: 風吹けば名無し: 2019/10/19(土) 14:20:33.80 ID:GJPB52LP0.net

333: 風吹けば名無し: 2019/10/19(土) 14:21:33.23 ID:YGECQDgjp.net 最近のワイのイチオシ




341: 風吹けば名無し: 2019/10/19(土) 14:22:26.09 ID:sGh7d41K0.net

344: 風吹けば名無し: 2019/10/19(土) 14:22:44.68 ID:0IDYJX4s0.net

348: 風吹けば名無し: 2019/10/19(土) 14:23:08.88 ID:aUKxFg3kd.net

367: 風吹けば名無し: 2019/10/19(土) 14:25:03.85 ID:1xQ85kWg0.net



374: 風吹けば名無し: 2019/10/19(土) 14:25:15.60 ID:aUKxFg3kd.net

386: 風吹けば名無し: 2019/10/19(土) 14:25:54.61 ID:KQ7ijVaH0.net

387: 風吹けば名無し: 2019/10/19(土) 14:25:58.94 ID:aUKxFg3kd.net

392: 風吹けば名無し: 2019/10/19(土) 14:26:11.45 ID:sbcNR6apa.net 城島が隅から隅まで堪能してガッツリ種付けした体
今24歳


403: 風吹けば名無し: 2019/10/19(土) 14:26:54.14 ID:aUKxFg3kd.net

609: 風吹けば名無し: 2019/10/19(土) 14:45:20.28 ID:NSy71fT8d.net >>403
この人の風呂で体擦り付けるやつくっそ好き
404: 風吹けば名無し: 2019/10/19(土) 14:26:56.99 ID:aYJV24r60.net

407: 風吹けば名無し: 2019/10/19(土) 14:27:28.18 ID:sGh7d41K0.net

408: 風吹けば名無し: 2019/10/19(土) 14:27:33.48 ID:KQ7ijVaH0.net

411: 風吹けば名無し: 2019/10/19(土) 14:27:43.83 ID:+hbB1sPjr.net この子は素人なん?

可愛い



413: 風吹けば名無し: 2019/10/19(土) 14:27:58.05 ID:f43lovrhd.net

441: 風吹けば名無し: 2019/10/19(土) 14:30:04.81 ID:qIRee02y0.net >>413
なん爺民7と13の需要高そう
414: 風吹けば名無し: 2019/10/19(土) 14:28:06.96 ID:aYJV24r60.net

418: 風吹けば名無し: 2019/10/19(土) 14:28:21.18 ID:aUKxFg3kd.net

425: 風吹けば名無し: 2019/10/19(土) 14:28:44.77 ID:ibmD4s4Q0.net











430: 風吹けば名無し: 2019/10/19(土) 14:29:11.13 ID:aUKxFg3kd.net





436: 風吹けば名無し: 2019/10/19(土) 14:29:41.09 ID:BDvfLoV10.net 最近のワイのイチオシNMB










439: 風吹けば名無し: 2019/10/19(土) 14:29:48.18 ID:aUKxFg3kd.net

449: 風吹けば名無し: 2019/10/19(土) 14:30:28.90 ID:IjTTeVy90.net







451: 風吹けば名無し: 2019/10/19(土) 14:31:05.57 ID:bTwSNq1g0.net gifくれgif
グラビアの画像より動画がすこなんじゃ
460: 風吹けば名無し: 2019/10/19(土) 14:31:40.37 ID:aYJV24r60.net >>451



472: 風吹けば名無し: 2019/10/19(土) 14:32:47.93 ID:hr/5yAMz0.net >>460
おハム
494: 風吹けば名無し: 2019/10/19(土) 14:33:58.30 ID:bTwSNq1g0.net >>460
ええな
518: 風吹けば名無し: 2019/10/19(土) 14:35:50.67 ID:BDvfLoV10.net >>451




454: 風吹けば名無し: 2019/10/19(土) 14:31:14.73 ID:aYJV24r60.net

487: 風吹けば名無し: 2019/10/19(土) 14:33:27.54 ID:QG9tyrJZ0.net


清水あいりちゃんに男の子やなのポーズしてもらって撮った時のやで
おっぱい迫力ありすぎてガン見してしまったわ
497: 風吹けば名無し: 2019/10/19(土) 14:34:29.89 ID:Uje3LRkR0.net >>487
エッッッッ
500: 風吹けば名無し: 2019/10/19(土) 14:34:41.82 ID:BcTdAuJw0.net >>487
生で見れるとかええなぁ
ちんこバキバキなってまうわ

495: 風吹けば名無し: 2019/10/19(土) 14:34:03.09 ID:cQdQGZ7n0.net ミスマガジン出身者






527: 風吹けば名無し: 2019/10/19(土) 14:37:01.87 ID:qDUt5mWc0.net >>495
斉藤由貴ええな
496: 風吹けば名無し: 2019/10/19(土) 14:34:05.57 ID:l0SBrBZr0.net








521: 風吹けば名無し: 2019/10/19(土) 14:36:04.23 ID:EdxvFzgsd.net >>496
このくらいの女ほんまええわ
504: 風吹けば名無し: 2019/10/19(土) 14:35:06.74 ID:aYJV24r60.net



509: 風吹けば名無し: 2019/10/19(土) 14:35:22.84 ID:ScDq7EjP0.net 腹を修正するな😡


511: 風吹けば名無し: 2019/10/19(土) 14:35:28.54 ID:IjTTeVy90.net



528: 風吹けば名無し: 2019/10/19(土) 14:37:09.73 ID:1xQ85kWg0.net

532: 風吹けば名無し: 2019/10/19(土) 14:37:39.06 ID:0IDYJX4s0.net >>528
こういうのでいいんだな
535: 風吹けば名無し: 2019/10/19(土) 14:37:50.31 ID:bTwSNq1g0.net >>528
則本にしか見えない
540: 風吹けば名無し: 2019/10/19(土) 14:37:58.73 ID:C6GIZ1610.net エッッッッッッッ


544: 風吹けば名無し: 2019/10/19(土) 14:38:39.12 ID:JJG3S0bja.net >>540
ええな
547: 風吹けば名無し: 2019/10/19(土) 14:38:40.64 ID:cQdQGZ7n0.net







555: 風吹けば名無し: 2019/10/19(土) 14:39:21.33 ID:qQImBCJ10.net こういうのが欲しいんだが




561: 風吹けば名無し: 2019/10/19(土) 14:39:49.33 ID:cb4QAHcjp.net 馬場ふみかちゃん欲張りセット置いとくぞ😊




















563: 風吹けば名無し: 2019/10/19(土) 14:39:58.84 ID:cb4QAHcjp.net



















567: 風吹けば名無し: 2019/10/19(土) 14:40:20.79 ID:1xQ85kWg0.net

580: 風吹けば名無し: 2019/10/19(土) 14:42:02.79 ID:9L8scN+f0.net のちにマシンガンピストンを受けることになる


583: 風吹けば名無し: 2019/10/19(土) 14:42:23.15 ID:yFLCBPt80.net 二極化が凄いよな
筋トレしてる奴と何も運動してない奴の格差ヤバすぎる
男もやが

584: 風吹けば名無し: 2019/10/19(土) 14:42:27.93 ID:1xQ85kWg0.net



585: 風吹けば名無し: 2019/10/19(土) 14:42:33.91 ID:qQImBCJ10.net なあ聞いてるんか?


588: 風吹けば名無し: 2019/10/19(土) 14:42:58.15 ID:SgYyes+u0.net





589: 風吹けば名無し: 2019/10/19(土) 14:43:08.64 ID:bTwSNq1g0.net この子すこなんやけど無料の動画全然落ちてないンゴ…




600: 風吹けば名無し: 2019/10/19(土) 14:44:39.35 ID:oM80QQ720.net >>589
潮騒😡
607: 風吹けば名無し: 2019/10/19(土) 14:45:16.29 ID:bTwSNq1g0.net >>600
鈴原りこちゃんや
全然動画どこにもあがらんねん
592: 風吹けば名無し: 2019/10/19(土) 14:43:29.81 ID:SgYyes+u0.net





597: 風吹けば名無し: 2019/10/19(土) 14:44:06.23 ID:SgYyes+u0.net





601: 風吹けば名無し: 2019/10/19(土) 14:44:47.87 ID:SgYyes+u0.net





610: 風吹けば名無し: 2019/10/19(土) 14:45:20.89 ID:SgYyes+u0.net





611: 風吹けば名無し: 2019/10/19(土) 14:45:33.08 ID:cb4QAHcjp.net 池田エライザちゃんの欲張りセット置いとくぞ🤗


























618: 風吹けば名無し: 2019/10/19(土) 14:46:27.43 ID:SgYyes+u0.net



621: 風吹けば名無し: 2019/10/19(土) 14:47:06.97 ID:BqGbhGV4d.net



625: 風吹けば名無し: 2019/10/19(土) 14:47:29.50 ID:YnRk2g8R0.net >>621
つよそう
630: 風吹けば名無し: 2019/10/19(土) 14:47:42.10 ID:Nw81Yhk50.net >>621
恵体やん

【悲報】Xvideos見まくった末路wwwwwwwwwwwwwwwwwwwww【愕然】妹が寝てる時にマンコに指突っ込んでみた結果wwwwwwwwwwwwwwwww【画像】何度も抜いたわっていう同人誌wwwwwww【愕然】ワイ「wifiのパスワード教えて」隣人「は?」ワイ「は?」→結果WWWWWWWWWWWWWWWWWWWWW【閲覧注意】「AV女優って大変だなあ」と思う場面集めてみたらwwwマジキチすぎwwww(※画像)【驚愕】前に4Pした女と二人っきりでHした結果wwwwwwwwwwww【画像】AV女優「レズが一番キツイ」←またまた~wwwwwwww【画像】電車に乳首丸見えの女いたから撮ったったwwwwwww【※屈辱※】不覚にも姉の無防備な姿に女を感じてぼ●きしちまった・・・・・(画像あり)【鬼畜】 女児(7)が男に精液を飲まされパニック障害に・・・・【ボッキ注意】ベトナムのデカ乳小学生モデル(12)が即ハボで抜けるwwwww(※画像)【ボッキ注意】女の子の股の下にできる逆三角形がたまらなく好きなんだがwwwwwwwwww(画像あり)女優「見えちゃう…」整体師「大丈夫です(意味不明」 → 結果wwwwwwwwwwwww【H注意】このコスプレイヤーにチンピクしないやついるの?(画像あり)

引用元:http://swallow.2ch.sc/test/read.cgi/livejupiter/1571460476/

ピックアップ

【画像】最近のグラビアが過ぎる | 【つっ!.COM】 2chまとめにΣ(`・ω・ ´ ) へのコメント

つっ!コメ

レッツ!つっ!コメ

名前
メールアドレス
URL

全角数字にも対応しました。
対応アンカ: > , >> , >> , >
(例): >>5, >>5, >5, >5など。
※文の途中にあるアンカには反応しません、文頭のみです(´・ω・`)
好きなとこへツッコもう!
もちろん普通のコメントもお待ちしておまんす!

つっ!コメ本文

※NGワードは伏せ字にさせて頂きます。悪しからず(´・ω・`)